sensor_id;sensor_type;location;lat;lon;timestamp;pressure;altitude;pressure_sealevel;temperature;humidity
74403;BME280;62837;51.082;13.744;2023-05-07T00:00:34;100762.22;;;12.01;69.97
74403;BME280;62837;51.082;13.744;2023-05-07T00:03:04;100757.75;;;12.02;70.29
74403;BME280;62837;51.082;13.744;2023-05-07T00:05:36;100751.52;;;12.01;70.15
74403;BME280;62837;51.082;13.744;2023-05-07T00:08:08;100754.17;;;11.97;70.46
74403;BME280;62837;51.082;13.744;2023-05-07T00:10:39;100759.15;;;11.93;70.78
74403;BME280;62837;51.082;13.744;2023-05-07T00:13:09;100761.33;;;11.92;70.84
74403;BME280;62837;51.082;13.744;2023-05-07T00:15:41;100761.79;;;11.98;70.95
74403;BME280;62837;51.082;13.744;2023-05-07T00:18:11;100759.89;;;12.01;70.97
74403;BME280;62837;51.082;13.744;2023-05-07T00:20:42;100759.21;;;12.04;70.55
74403;BME280;62837;51.082;13.744;2023-05-07T00:23:13;100756.27;;;12.03;70.40
74403;BME280;62837;51.082;13.744;2023-05-07T00:25:44;100751.14;;;12.02;70.53
74403;BME280;62837;51.082;13.744;2023-05-07T00:28:14;100752.55;;;12.03;70.12
74403;BME280;62837;51.082;13.744;2023-05-07T00:30:45;100758.30;;;11.96;70.14
74403;BME280;62837;51.082;13.744;2023-05-07T00:33:16;100762.88;;;11.91;70.02
74403;BME280;62837;51.082;13.744;2023-05-07T00:35:47;100764.77;;;11.79;70.32
74403;BME280;62837;51.082;13.744;2023-05-07T00:38:18;100763.84;;;11.80;70.48
74403;BME280;62837;51.082;13.744;2023-05-07T00:40:48;100760.65;;;11.81;70.42
74403;BME280;62837;51.082;13.744;2023-05-07T00:43:21;100758.80;;;11.76;70.37
74403;BME280;62837;51.082;13.744;2023-05-07T00:45:52;100758.45;;;11.75;70.67
74403;BME280;62837;51.082;13.744;2023-05-07T00:48:23;100763.71;;;11.82;70.54
74403;BME280;62837;51.082;13.744;2023-05-07T00:50:55;100762.52;;;11.84;70.26
74403;BME280;62837;51.082;13.744;2023-05-07T00:53:27;100760.49;;;11.82;70.20
74403;BME280;62837;51.082;13.744;2023-05-07T00:55:58;100755.64;;;11.80;70.32
74403;BME280;62837;51.082;13.744;2023-05-07T00:58:30;100758.02;;;11.82;70.33
74403;BME280;62837;51.082;13.744;2023-05-07T01:01:01;100752.98;;;11.83;70.21
74403;BME280;62837;51.082;13.744;2023-05-07T01:03:32;100754.42;;;11.81;70.23
74403;BME280;62837;51.082;13.744;2023-05-07T01:06:04;100752.27;;;11.86;70.25
74403;BME280;62837;51.082;13.744;2023-05-07T01:08:38;100754.21;;;11.86;70.04
74403;BME280;62837;51.082;13.744;2023-05-07T01:11:10;100756.63;;;11.89;70.20
74403;BME280;62837;51.082;13.744;2023-05-07T01:13:41;100756.36;;;11.96;69.96
74403;BME280;62837;51.082;13.744;2023-05-07T01:16:12;100756.23;;;11.98;69.66
74403;BME280;62837;51.082;13.744;2023-05-07T01:18:44;100749.44;;;12.02;69.87
74403;BME280;62837;51.082;13.744;2023-05-07T01:21:18;100751.63;;;12.02;69.45
74403;BME280;62837;51.082;13.744;2023-05-07T01:23:49;100757.95;;;12.05;69.82
74403;BME280;62837;51.082;13.744;2023-05-07T01:26:20;100757.02;;;12.15;69.68
74403;BME280;62837;51.082;13.744;2023-05-07T01:28:51;100761.09;;;12.21;68.99
74403;BME280;62837;51.082;13.744;2023-05-07T01:31:22;100759.09;;;12.19;68.63
74403;BME280;62837;51.082;13.744;2023-05-07T01:33:55;100764.41;;;12.11;68.67
74403;BME280;62837;51.082;13.744;2023-05-07T01:36:27;100766.53;;;12.08;69.08
74403;BME280;62837;51.082;13.744;2023-05-07T01:39:00;100760.73;;;12.12;68.70
74403;BME280;62837;51.082;13.744;2023-05-07T01:41:30;100761.91;;;12.09;68.65
74403;BME280;62837;51.082;13.744;2023-05-07T01:44:01;100764.68;;;12.06;68.83
74403;BME280;62837;51.082;13.744;2023-05-07T01:46:34;100768.06;;;12.07;68.99
74403;BME280;62837;51.082;13.744;2023-05-07T01:49:05;100768.14;;;12.09;69.20
74403;BME280;62837;51.082;13.744;2023-05-07T01:51:35;100770.67;;;12.15;68.95
74403;BME280;62837;51.082;13.744;2023-05-07T01:54:06;100773.44;;;12.17;68.67
74403;BME280;62837;51.082;13.744;2023-05-07T01:56:37;100774.85;;;12.18;68.98
74403;BME280;62837;51.082;13.744;2023-05-07T01:59:09;100758.98;;;12.14;68.37
74403;BME280;62837;51.082;13.744;2023-05-07T02:01:40;100770.94;;;12.08;68.48
74403;BME280;62837;51.082;13.744;2023-05-07T02:04:12;100770.47;;;12.06;68.78
74403;BME280;62837;51.082;13.744;2023-05-07T02:06:42;100769.23;;;12.08;68.58
74403;BME280;62837;51.082;13.744;2023-05-07T02:09:15;100769.25;;;12.10;68.61
74403;BME280;62837;51.082;13.744;2023-05-07T02:11:48;100765.19;;;12.12;68.54
74403;BME280;62837;51.082;13.744;2023-05-07T02:14:20;100769.72;;;12.08;68.39
74403;BME280;62837;51.082;13.744;2023-05-07T02:16:51;100771.80;;;12.00;68.39
74403;BME280;62837;51.082;13.744;2023-05-07T02:19:22;100772.70;;;11.93;68.55
74403;BME280;62837;51.082;13.744;2023-05-07T02:21:53;100772.54;;;11.83;68.72
74403;BME280;62837;51.082;13.744;2023-05-07T02:24:23;100776.02;;;11.81;68.97
74403;BME280;62837;51.082;13.744;2023-05-07T02:26:54;100782.33;;;11.82;69.21
74403;BME280;62837;51.082;13.744;2023-05-07T02:29:25;100782.77;;;11.85;69.10
74403;BME280;62837;51.082;13.744;2023-05-07T02:31:56;100785.66;;;11.88;69.11
74403;BME280;62837;51.082;13.744;2023-05-07T02:34:27;100788.42;;;11.94;69.14
74403;BME280;62837;51.082;13.744;2023-05-07T02:36:58;100784.98;;;11.97;68.89
74403;BME280;62837;51.082;13.744;2023-05-07T02:39:29;100792.42;;;12.01;68.55
74403;BME280;62837;51.082;13.744;2023-05-07T02:42:00;100785.42;;;11.91;68.65
74403;BME280;62837;51.082;13.744;2023-05-07T02:44:31;100784.57;;;11.85;68.76
74403;BME280;62837;51.082;13.744;2023-05-07T02:47:02;100792.89;;;11.72;68.92
74403;BME280;62837;51.082;13.744;2023-05-07T02:49:33;100789.77;;;11.62;69.06
74403;BME280;62837;51.082;13.744;2023-05-07T02:52:05;100788.53;;;11.47;69.51
74403;BME280;62837;51.082;13.744;2023-05-07T02:54:36;100788.83;;;11.41;69.49
74403;BME280;62837;51.082;13.744;2023-05-07T02:57:07;100793.71;;;11.39;70.13
74403;BME280;62837;51.082;13.744;2023-05-07T02:59:37;100788.80;;;11.43;69.93
74403;BME280;62837;51.082;13.744;2023-05-07T03:02:08;100792.98;;;11.38;69.87
74403;BME280;62837;51.082;13.744;2023-05-07T03:04:40;100792.80;;;11.33;70.02
74403;BME280;62837;51.082;13.744;2023-05-07T03:07:11;100792.71;;;11.27;70.09
74403;BME280;62837;51.082;13.744;2023-05-07T03:09:41;100795.58;;;11.27;70.11
74403;BME280;62837;51.082;13.744;2023-05-07T03:12:12;100791.70;;;11.29;70.83
74403;BME280;62837;51.082;13.744;2023-05-07T03:14:43;100793.54;;;11.35;70.56
74403;BME280;62837;51.082;13.744;2023-05-07T03:17:14;100789.71;;;11.41;70.33
74403;BME280;62837;51.082;13.744;2023-05-07T03:19:45;100791.80;;;11.45;70.14
74403;BME280;62837;51.082;13.744;2023-05-07T03:22:16;100788.50;;;11.40;70.16
74403;BME280;62837;51.082;13.744;2023-05-07T03:24:48;100790.54;;;11.33;70.28
74403;BME280;62837;51.082;13.744;2023-05-07T03:27:18;100790.21;;;11.33;70.74
74403;BME280;62837;51.082;13.744;2023-05-07T03:29:50;100790.31;;;11.40;70.30
74403;BME280;62837;51.082;13.744;2023-05-07T03:32:24;100793.84;;;11.45;70.30
74403;BME280;62837;51.082;13.744;2023-05-07T03:34:55;100797.57;;;11.47;70.06
74403;BME280;62837;51.082;13.744;2023-05-07T03:37:26;100801.70;;;11.44;69.74
74403;BME280;62837;51.082;13.744;2023-05-07T03:39:57;100798.57;;;11.36;69.91
74403;BME280;62837;51.082;13.744;2023-05-07T03:42:28;100799.33;;;11.39;69.93
74403;BME280;62837;51.082;13.744;2023-05-07T03:44:59;100801.61;;;11.37;69.79
74403;BME280;62837;51.082;13.744;2023-05-07T03:47:30;100805.85;;;11.33;70.09
74403;BME280;62837;51.082;13.744;2023-05-07T03:50:02;100803.75;;;11.37;70.04
74403;BME280;62837;51.082;13.744;2023-05-07T03:52:33;100802.59;;;11.35;69.77
74403;BME280;62837;51.082;13.744;2023-05-07T03:55:06;100807.33;;;11.21;70.07
74403;BME280;62837;51.082;13.744;2023-05-07T03:57:39;100804.32;;;11.15;70.60
74403;BME280;62837;51.082;13.744;2023-05-07T04:00:12;100803.63;;;11.20;70.65
74403;BME280;62837;51.082;13.744;2023-05-07T04:02:49;100808.73;;;11.18;70.67
74403;BME280;62837;51.082;13.744;2023-05-07T04:05:28;100808.85;;;11.13;70.89
74403;BME280;62837;51.082;13.744;2023-05-07T04:08:02;100807.67;;;11.22;70.86
74403;BME280;62837;51.082;13.744;2023-05-07T04:10:38;100809.21;;;11.37;70.88
74403;BME280;62837;51.082;13.744;2023-05-07T04:13:11;100809.42;;;11.49;70.49
74403;BME280;62837;51.082;13.744;2023-05-07T04:15:43;100810.20;;;11.56;70.24
74403;BME280;62837;51.082;13.744;2023-05-07T04:18:14;100811.29;;;11.64;70.14
74403;BME280;62837;51.082;13.744;2023-05-07T04:20:46;100812.41;;;11.71;69.92
74403;BME280;62837;51.082;13.744;2023-05-07T04:23:17;100812.61;;;11.75;69.68
74403;BME280;62837;51.082;13.744;2023-05-07T04:25:48;100813.10;;;11.83;69.47
74403;BME280;62837;51.082;13.744;2023-05-07T04:28:29;100820.27;;;11.80;69.05
74403;BME280;62837;51.082;13.744;2023-05-07T04:31:00;100824.80;;;11.69;68.99
74403;BME280;62837;51.082;13.744;2023-05-07T04:33:32;100829.09;;;11.64;69.30
74403;BME280;62837;51.082;13.744;2023-05-07T04:36:04;100832.83;;;11.67;69.40
74403;BME280;62837;51.082;13.744;2023-05-07T04:38:40;100834.10;;;11.75;69.20
74403;BME280;62837;51.082;13.744;2023-05-07T04:41:12;100835.83;;;11.70;68.96
74403;BME280;62837;51.082;13.744;2023-05-07T04:43:45;100839.23;;;11.65;69.21
74403;BME280;62837;51.082;13.744;2023-05-07T04:46:16;100840.28;;;11.70;69.08
74403;BME280;62837;51.082;13.744;2023-05-07T04:48:47;100844.98;;;11.61;68.84
74403;BME280;62837;51.082;13.744;2023-05-07T04:51:18;100848.27;;;11.62;69.06
74403;BME280;62837;51.082;13.744;2023-05-07T04:53:49;100853.02;;;11.54;68.88
74403;BME280;62837;51.082;13.744;2023-05-07T04:56:20;100850.45;;;11.48;69.43
74403;BME280;62837;51.082;13.744;2023-05-07T04:58:51;100854.46;;;11.55;69.34
74403;BME280;62837;51.082;13.744;2023-05-07T05:01:22;100855.44;;;11.66;69.36
74403;BME280;62837;51.082;13.744;2023-05-07T05:03:53;100857.20;;;11.77;69.01
74403;BME280;62837;51.082;13.744;2023-05-07T05:06:24;100863.54;;;11.81;68.60
74403;BME280;62837;51.082;13.744;2023-05-07T05:08:54;100863.43;;;11.85;68.57
74403;BME280;62837;51.082;13.744;2023-05-07T05:11:26;100865.59;;;11.94;68.52
74403;BME280;62837;51.082;13.744;2023-05-07T05:13:58;100866.67;;;12.05;68.40
74403;BME280;62837;51.082;13.744;2023-05-07T05:16:29;100863.03;;;12.15;67.91
74403;BME280;62837;51.082;13.744;2023-05-07T05:19:01;100861.00;;;12.16;67.08
74403;BME280;62837;51.082;13.744;2023-05-07T05:21:32;100860.05;;;12.10;66.71
74403;BME280;62837;51.082;13.744;2023-05-07T05:24:08;100864.39;;;11.95;66.72
74403;BME280;62837;51.082;13.744;2023-05-07T05:26:38;100865.27;;;11.99;67.08
74403;BME280;62837;51.082;13.744;2023-05-07T05:29:09;100865.95;;;12.14;66.98
74403;BME280;62837;51.082;13.744;2023-05-07T05:31:41;100866.90;;;12.26;66.38
74403;BME280;62837;51.082;13.744;2023-05-07T05:34:12;100869.23;;;12.27;66.41
74403;BME280;62837;51.082;13.744;2023-05-07T05:36:43;100881.21;;;12.28;66.34
74403;BME280;62837;51.082;13.744;2023-05-07T05:39:15;100882.05;;;12.23;65.92
74403;BME280;62837;51.082;13.744;2023-05-07T05:41:46;100883.56;;;12.22;66.38
74403;BME280;62837;51.082;13.744;2023-05-07T05:44:17;100890.64;;;12.23;65.91
74403;BME280;62837;51.082;13.744;2023-05-07T05:46:48;100891.20;;;12.14;65.54
74403;BME280;62837;51.082;13.744;2023-05-07T05:49:20;100898.74;;;11.97;65.88
74403;BME280;62837;51.082;13.744;2023-05-07T05:51:51;100897.59;;;11.80;66.14
74403;BME280;62837;51.082;13.744;2023-05-07T05:54:22;100899.88;;;11.75;66.69
74403;BME280;62837;51.082;13.744;2023-05-07T05:56:54;100902.76;;;11.70;66.88
74403;BME280;62837;51.082;13.744;2023-05-07T05:59:25;100904.35;;;11.73;66.80
74403;BME280;62837;51.082;13.744;2023-05-07T06:01:56;100909.30;;;11.81;66.95
74403;BME280;62837;51.082;13.744;2023-05-07T06:04:27;100908.11;;;11.88;65.99
74403;BME280;62837;51.082;13.744;2023-05-07T06:06:58;100912.40;;;11.87;65.57
74403;BME280;62837;51.082;13.744;2023-05-07T06:09:30;100913.63;;;11.76;65.44
74403;BME280;62837;51.082;13.744;2023-05-07T06:12:00;100920.27;;;11.65;65.56
74403;BME280;62837;51.082;13.744;2023-05-07T06:14:31;100921.00;;;11.53;65.80
74403;BME280;62837;51.082;13.744;2023-05-07T06:17:02;100928.94;;;11.48;66.09
74403;BME280;62837;51.082;13.744;2023-05-07T06:19:34;100935.06;;;11.39;66.33
74403;BME280;62837;51.082;13.744;2023-05-07T06:22:05;100936.04;;;11.37;67.09
74403;BME280;62837;51.082;13.744;2023-05-07T06:24:36;100943.10;;;11.42;66.91
74403;BME280;62837;51.082;13.744;2023-05-07T06:27:07;100939.47;;;11.39;66.56
74403;BME280;62837;51.082;13.744;2023-05-07T06:29:39;100941.48;;;11.30;66.67
74403;BME280;62837;51.082;13.744;2023-05-07T06:32:14;100942.70;;;11.21;66.62
74403;BME280;62837;51.082;13.744;2023-05-07T06:34:46;100940.22;;;11.14;66.79
74403;BME280;62837;51.082;13.744;2023-05-07T06:37:17;100935.99;;;11.15;67.12
74403;BME280;62837;51.082;13.744;2023-05-07T06:39:55;100932.05;;;11.17;67.24
74403;BME280;62837;51.082;13.744;2023-05-07T06:42:29;100935.65;;;11.21;67.74
74403;BME280;62837;51.082;13.744;2023-05-07T06:45:02;100933.09;;;11.25;67.20
74403;BME280;62837;51.082;13.744;2023-05-07T06:47:33;100939.29;;;11.30;66.94
74403;BME280;62837;51.082;13.744;2023-05-07T06:50:05;100947.05;;;11.31;66.96
74403;BME280;62837;51.082;13.744;2023-05-07T06:52:36;100952.41;;;11.32;66.54
74403;BME280;62837;51.082;13.744;2023-05-07T06:55:09;100957.19;;;11.28;67.01
74403;BME280;62837;51.082;13.744;2023-05-07T06:57:40;100955.67;;;11.23;67.26
74403;BME280;62837;51.082;13.744;2023-05-07T07:00:13;100956.06;;;11.19;67.38
74403;BME280;62837;51.082;13.744;2023-05-07T07:02:55;100954.52;;;11.21;67.56
74403;BME280;62837;51.082;13.744;2023-05-07T07:05:28;100962.46;;;11.17;67.65
74403;BME280;62837;51.082;13.744;2023-05-07T07:08:00;100961.14;;;11.14;67.69
74403;BME280;62837;51.082;13.744;2023-05-07T07:10:31;100958.85;;;11.12;67.27
74403;BME280;62837;51.082;13.744;2023-05-07T07:13:02;100958.80;;;11.13;67.43
74403;BME280;62837;51.082;13.744;2023-05-07T07:15:33;100953.40;;;11.16;67.59
74403;BME280;62837;51.082;13.744;2023-05-07T07:18:03;100953.04;;;11.20;67.69
74403;BME280;62837;51.082;13.744;2023-05-07T07:20:34;100954.21;;;11.24;67.01
74403;BME280;62837;51.082;13.744;2023-05-07T07:23:06;100960.00;;;11.28;67.04
74403;BME280;62837;51.082;13.744;2023-05-07T07:25:37;100961.45;;;11.29;66.12
74403;BME280;62837;51.082;13.744;2023-05-07T07:28:08;100966.03;;;11.27;66.22
74403;BME280;62837;51.082;13.744;2023-05-07T07:30:41;100966.79;;;11.32;66.31
74403;BME280;62837;51.082;13.744;2023-05-07T07:33:12;100965.73;;;11.38;66.14
74403;BME280;62837;51.082;13.744;2023-05-07T07:35:43;100967.89;;;11.42;65.92
74403;BME280;62837;51.082;13.744;2023-05-07T07:38:14;100971.46;;;11.45;65.88
74403;BME280;62837;51.082;13.744;2023-05-07T07:40:47;100971.69;;;11.45;65.63
74403;BME280;62837;51.082;13.744;2023-05-07T07:43:16;100970.50;;;11.40;65.66
74403;BME280;62837;51.082;13.744;2023-05-07T07:45:47;100974.68;;;11.37;65.64
74403;BME280;62837;51.082;13.744;2023-05-07T07:48:18;100979.61;;;11.32;65.96
74403;BME280;62837;51.082;13.744;2023-05-07T07:50:51;100981.98;;;11.33;66.05
74403;BME280;62837;51.082;13.744;2023-05-07T07:53:22;100979.07;;;11.36;66.09
74403;BME280;62837;51.082;13.744;2023-05-07T07:55:53;100981.92;;;11.39;65.98
74403;BME280;62837;51.082;13.744;2023-05-07T07:58:30;100981.99;;;11.37;65.69
74403;BME280;62837;51.082;13.744;2023-05-07T08:01:01;100982.73;;;11.34;65.80
74403;BME280;62837;51.082;13.744;2023-05-07T08:03:32;100991.27;;;11.28;65.96
74403;BME280;62837;51.082;13.744;2023-05-07T08:06:04;100989.20;;;11.27;66.10
74403;BME280;62837;51.082;13.744;2023-05-07T08:08:35;100987.39;;;11.27;66.18
74403;BME280;62837;51.082;13.744;2023-05-07T08:11:07;100993.75;;;11.28;66.34
74403;BME280;62837;51.082;13.744;2023-05-07T08:13:39;100998.63;;;11.33;66.29
74403;BME280;62837;51.082;13.744;2023-05-07T08:16:10;100998.69;;;11.30;65.73
74403;BME280;62837;51.082;13.744;2023-05-07T08:18:42;101001.11;;;11.23;65.91
74403;BME280;62837;51.082;13.744;2023-05-07T08:21:13;101002.39;;;11.25;65.67
74403;BME280;62837;51.082;13.744;2023-05-07T08:23:44;100997.88;;;11.29;65.94
74403;BME280;62837;51.082;13.744;2023-05-07T08:26:15;101003.80;;;11.36;65.82
74403;BME280;62837;51.082;13.744;2023-05-07T08:28:46;101005.11;;;11.36;65.39
74403;BME280;62837;51.082;13.744;2023-05-07T08:31:16;101011.42;;;11.38;65.22
74403;BME280;62837;51.082;13.744;2023-05-07T08:33:48;101009.77;;;11.33;65.00
74403;BME280;62837;51.082;13.744;2023-05-07T08:36:19;101007.66;;;11.31;64.89
74403;BME280;62837;51.082;13.744;2023-05-07T08:38:50;101003.19;;;11.27;65.13
74403;BME280;62837;51.082;13.744;2023-05-07T08:41:21;101005.21;;;11.29;65.30
74403;BME280;62837;51.082;13.744;2023-05-07T08:43:52;101009.22;;;11.31;65.55
74403;BME280;62837;51.082;13.744;2023-05-07T08:46:29;101011.09;;;11.37;65.36
74403;BME280;62837;51.082;13.744;2023-05-07T08:49:02;101007.07;;;11.43;65.32
74403;BME280;62837;51.082;13.744;2023-05-07T08:51:33;101007.31;;;11.51;65.42
74403;BME280;62837;51.082;13.744;2023-05-07T08:54:05;101008.21;;;11.56;65.06
74403;BME280;62837;51.082;13.744;2023-05-07T08:56:36;101014.89;;;11.59;65.09
74403;BME280;62837;51.082;13.744;2023-05-07T08:59:09;101019.96;;;11.60;64.81
74403;BME280;62837;51.082;13.744;2023-05-07T09:01:41;101023.67;;;11.58;64.51
74403;BME280;62837;51.082;13.744;2023-05-07T09:04:13;101025.40;;;11.55;64.63
74403;BME280;62837;51.082;13.744;2023-05-07T09:06:45;101019.21;;;11.58;64.68
74403;BME280;62837;51.082;13.744;2023-05-07T09:09:18;101026.64;;;11.60;64.66
74403;BME280;62837;51.082;13.744;2023-05-07T09:11:58;101028.38;;;11.53;64.36
74403;BME280;62837;51.082;13.744;2023-05-07T09:14:30;101031.08;;;11.49;64.63
74403;BME280;62837;51.082;13.744;2023-05-07T09:17:01;101030.24;;;11.52;64.72
74403;BME280;62837;51.082;13.744;2023-05-07T09:19:32;101037.90;;;11.58;64.63
74403;BME280;62837;51.082;13.744;2023-05-07T09:22:03;101035.52;;;11.61;64.70
74403;BME280;62837;51.082;13.744;2023-05-07T09:24:48;101032.77;;;11.69;64.62
74403;BME280;62837;51.082;13.744;2023-05-07T09:27:21;101033.46;;;11.79;64.34
74403;BME280;62837;51.082;13.744;2023-05-07T09:29:52;101034.23;;;11.86;63.97
74403;BME280;62837;51.082;13.744;2023-05-07T09:32:24;101036.50;;;11.93;63.97
74403;BME280;62837;51.082;13.744;2023-05-07T09:34:56;101037.81;;;11.99;63.68
74403;BME280;62837;51.082;13.744;2023-05-07T09:37:32;101038.70;;;12.00;63.67
74403;BME280;62837;51.082;13.744;2023-05-07T09:40:01;101036.89;;;11.94;63.16
74403;BME280;62837;51.082;13.744;2023-05-07T09:42:33;101034.15;;;11.84;63.37
74403;BME280;62837;51.082;13.744;2023-05-07T09:45:07;101036.66;;;11.83;63.33
74403;BME280;62837;51.082;13.744;2023-05-07T09:47:40;101038.23;;;11.84;63.18
74403;BME280;62837;51.082;13.744;2023-05-07T09:50:16;101041.02;;;11.87;62.93
74403;BME280;62837;51.082;13.744;2023-05-07T09:52:49;101042.46;;;11.90;62.68
74403;BME280;62837;51.082;13.744;2023-05-07T09:55:21;101046.27;;;11.91;62.81
74403;BME280;62837;51.082;13.744;2023-05-07T09:57:53;101045.73;;;11.85;62.80
74403;BME280;62837;51.082;13.744;2023-05-07T10:00:26;101044.97;;;11.79;63.17
74403;BME280;62837;51.082;13.744;2023-05-07T10:03:02;101046.85;;;11.73;63.28
74403;BME280;62837;51.082;13.744;2023-05-07T10:05:47;101049.04;;;11.67;63.79
74403;BME280;62837;51.082;13.744;2023-05-07T10:08:20;101051.77;;;11.65;63.84
74403;BME280;62837;51.082;13.744;2023-05-07T10:10:54;101051.60;;;11.68;63.76
74403;BME280;62837;51.082;13.744;2023-05-07T10:13:26;101042.14;;;11.69;63.58
74403;BME280;62837;51.082;13.744;2023-05-07T10:15:58;101041.52;;;11.77;63.52
74403;BME280;62837;51.082;13.744;2023-05-07T10:18:34;101039.58;;;11.86;63.52
74403;BME280;62837;51.082;13.744;2023-05-07T10:21:13;101045.48;;;11.94;63.16
74403;BME280;62837;51.082;13.744;2023-05-07T10:23:50;101044.14;;;11.99;62.78
74403;BME280;62837;51.082;13.744;2023-05-07T10:26:22;101049.40;;;12.01;62.46
74403;BME280;62837;51.082;13.744;2023-05-07T10:28:54;101052.66;;;12.04;62.17
74403;BME280;62837;51.082;13.744;2023-05-07T10:31:41;101047.98;;;12.05;62.29
74403;BME280;62837;51.082;13.744;2023-05-07T10:34:20;101041.02;;;12.11;62.22
74403;BME280;62837;51.082;13.744;2023-05-07T10:36:53;101036.92;;;12.21;62.46
74403;BME280;62837;51.082;13.744;2023-05-07T10:39:25;101037.75;;;12.33;62.34
74403;BME280;62837;51.082;13.744;2023-05-07T10:41:57;101042.88;;;12.45;61.93
74403;BME280;62837;51.082;13.744;2023-05-07T10:44:37;101033.67;;;12.59;61.35
74403;BME280;62837;51.082;13.744;2023-05-07T10:47:13;101032.55;;;12.71;61.30
74403;BME280;62837;51.082;13.744;2023-05-07T10:50:22;101033.71;;;12.85;60.29
74403;BME280;62837;51.082;13.744;2023-05-07T10:53:24;101029.11;;;12.92;60.13
74403;BME280;62837;51.082;13.744;2023-05-07T10:56:25;101024.13;;;13.07;59.12
74403;BME280;62837;51.082;13.744;2023-05-07T10:59:37;101018.36;;;13.10;58.65
74403;BME280;62837;51.082;13.744;2023-05-07T11:03:06;101020.15;;;13.10;58.52
74403;BME280;62837;51.082;13.744;2023-05-07T11:06:12;101022.36;;;13.07;58.77
74403;BME280;62837;51.082;13.744;2023-05-07T11:09:06;101019.60;;;13.11;58.57
74403;BME280;62837;51.082;13.744;2023-05-07T11:11:50;101013.71;;;13.16;58.63
74403;BME280;62837;51.082;13.744;2023-05-07T11:14:46;101020.63;;;13.29;58.37
74403;BME280;62837;51.082;13.744;2023-05-07T11:17:24;101018.89;;;13.31;57.74
74403;BME280;62837;51.082;13.744;2023-05-07T11:20:01;101010.77;;;13.26;57.73
74403;BME280;62837;51.082;13.744;2023-05-07T11:22:40;101007.77;;;13.30;58.03
74403;BME280;62837;51.082;13.744;2023-05-07T11:25:31;101010.28;;;13.32;57.95
74403;BME280;62837;51.082;13.744;2023-05-07T11:28:11;101007.68;;;13.32;57.89
74403;BME280;62837;51.082;13.744;2023-05-07T11:30:46;101011.82;;;13.38;57.54
74403;BME280;62837;51.082;13.744;2023-05-07T11:33:18;101005.88;;;13.34;57.53
74403;BME280;62837;51.082;13.744;2023-05-07T11:35:51;101012.17;;;13.35;57.73
74403;BME280;62837;51.082;13.744;2023-05-07T11:38:26;101006.39;;;13.36;57.68
74403;BME280;62837;51.082;13.744;2023-05-07T11:40:58;101009.69;;;13.35;57.37
74403;BME280;62837;51.082;13.744;2023-05-07T11:43:29;101012.89;;;13.30;57.83
74403;BME280;62837;51.082;13.744;2023-05-07T11:46:08;101018.88;;;13.30;57.65
74403;BME280;62837;51.082;13.744;2023-05-07T11:48:39;101009.85;;;13.28;58.10
74403;BME280;62837;51.082;13.744;2023-05-07T11:51:10;101007.34;;;13.31;57.93
74403;BME280;62837;51.082;13.744;2023-05-07T11:53:43;101008.15;;;13.34;57.68
74403;BME280;62837;51.082;13.744;2023-05-07T11:56:15;101016.52;;;13.38;57.84
74403;BME280;62837;51.082;13.744;2023-05-07T11:58:45;101010.45;;;13.39;57.54
74403;BME280;62837;51.082;13.744;2023-05-07T12:01:16;101015.02;;;13.36;57.69
74403;BME280;62837;51.082;13.744;2023-05-07T12:03:49;101014.67;;;13.34;57.62
74403;BME280;62837;51.082;13.744;2023-05-07T12:06:21;101016.09;;;13.35;57.73
74403;BME280;62837;51.082;13.744;2023-05-07T12:08:51;101019.27;;;13.37;57.97
74403;BME280;62837;51.082;13.744;2023-05-07T12:11:27;101023.81;;;13.38;58.28
74403;BME280;62837;51.082;13.744;2023-05-07T12:13:57;101024.33;;;13.39;58.20
74403;BME280;62837;51.082;13.744;2023-05-07T12:16:29;101021.18;;;13.40;58.27
74403;BME280;62837;51.082;13.744;2023-05-07T12:19:01;101022.27;;;13.44;59.38
74403;BME280;62837;51.082;13.744;2023-05-07T12:21:32;101018.04;;;13.53;58.96
74403;BME280;62837;51.082;13.744;2023-05-07T12:24:05;101023.60;;;13.58;60.07
74403;BME280;62837;51.082;13.744;2023-05-07T12:26:39;101019.80;;;13.73;60.08
74403;BME280;62837;51.082;13.744;2023-05-07T12:29:10;101021.16;;;13.92;59.70
74403;BME280;62837;51.082;13.744;2023-05-07T12:31:43;101022.80;;;14.13;60.51
74403;BME280;62837;51.082;13.744;2023-05-07T12:34:14;101027.88;;;14.32;58.51
74403;BME280;62837;51.082;13.744;2023-05-07T12:36:45;101036.70;;;14.35;58.39
74403;BME280;62837;51.082;13.744;2023-05-07T12:39:18;101036.03;;;14.41;57.70
74403;BME280;62837;51.082;13.744;2023-05-07T12:41:56;101033.80;;;14.31;56.17
74403;BME280;62837;51.082;13.744;2023-05-07T12:44:31;101033.40;;;14.29;57.66
74403;BME280;62837;51.082;13.744;2023-05-07T12:47:04;101038.27;;;14.31;56.81
74403;BME280;62837;51.082;13.744;2023-05-07T12:49:35;101032.02;;;14.32;56.18
74403;BME280;62837;51.082;13.744;2023-05-07T12:52:08;101024.89;;;14.29;56.37
74403;BME280;62837;51.082;13.744;2023-05-07T12:54:39;101026.23;;;14.35;56.42
74403;BME280;62837;51.082;13.744;2023-05-07T12:57:10;101018.77;;;14.41;56.68
74403;BME280;62837;51.082;13.744;2023-05-07T12:59:41;101019.73;;;14.56;56.38
74403;BME280;62837;51.082;13.744;2023-05-07T13:02:12;101018.83;;;14.64;56.00
74403;BME280;62837;51.082;13.744;2023-05-07T13:04:43;101021.41;;;14.73;55.74
74403;BME280;62837;51.082;13.744;2023-05-07T13:07:14;101015.67;;;14.78;54.82
74403;BME280;62837;51.082;13.744;2023-05-07T13:09:45;101016.10;;;14.76;55.32